Time;durP1;ratioP1;P1;durP2;ratioP2;P2;SDS_P1;SDS_P2;PMS_P1;PMS_P2;Temp;Humidity;BMP_temperature;BMP_pressure;BME280_temperature;BME280_humidity;BME280_pressure;Samples;Min_cycle;Max_cycle;Signal;HPM_P1;HPM_P2
2023/05/31 00:01:54;;;;;;;22.73;10.23;;;9.10;96.00;;;;;;5048029;28;20027;-68
2023/05/31 00:04:19;;;;;;;25.10;10.45;;;9.10;96.00;;;;;;5052987;28;20423;-68
2023/05/31 00:06:45;;;;;;;25.38;10.48;;;9.10;96.10;;;;;;5054202;28;20488;-68
2023/05/31 00:09:10;;;;;;;20.95;11.18;;;9.00;96.10;;;;;;5049409;28;20083;-68
2023/05/31 00:11:36;;;;;;;25.23;10.68;;;9.00;96.00;;;;;;5052090;28;20028;-69
2023/05/31 00:14:01;;;;;;;25.73;11.18;;;9.00;96.10;;;;;;5054795;28;20059;-68
2023/05/31 00:16:27;;;;;;;19.45;10.43;;;9.00;96.20;;;;;;5055022;28;20032;-68
2023/05/31 00:18:52;;;;;;;24.90;11.65;;;9.00;96.20;;;;;;5044760;28;20419;-68
2023/05/31 00:21:17;;;;;;;26.02;10.95;;;9.00;96.30;;;;;;5052969;28;20040;-68
2023/05/31 00:23:43;;;;;;;25.98;11.50;;;8.90;96.20;;;;;;5050106;28;20035;-68
2023/05/31 00:26:08;;;;;;;24.73;11.35;;;8.90;96.20;;;;;;5051185;28;20051;-68
2023/05/31 00:28:34;;;;;;;24.90;11.55;;;8.80;96.30;;;;;;5047906;28;20021;-68
2023/05/31 00:30:59;;;;;;;23.38;11.52;;;8.80;96.40;;;;;;5045663;28;20033;-68
2023/05/31 00:33:25;;;;;;;27.73;11.57;;;8.80;96.40;;;;;;5048486;28;20029;-69
2023/05/31 00:35:50;;;;;;;28.02;12.05;;;8.80;96.50;;;;;;5054632;28;20457;-69
2023/05/31 00:38:16;;;;;;;27.60;13.00;;;8.80;96.60;;;;;;5048920;28;20033;-69
2023/05/31 00:40:41;;;;;;;28.77;12.43;;;8.80;96.60;;;;;;5052442;28;20041;-69
2023/05/31 00:43:07;;;;;;;33.20;14.25;;;8.70;96.60;;;;;;5051743;28;20025;-68
2023/05/31 00:45:33;;;;;;;37.00;13.70;;;8.80;96.70;;;;;;5040032;28;20072;-68
2023/05/31 00:48:00;;;;;;;26.27;12.82;;;8.70;96.80;;;;;;5050879;28;20033;-69
2023/05/31 00:50:26;;;;;;;28.98;12.57;;;8.70;96.80;;;;;;5049647;28;20055;-68
2023/05/31 00:52:55;;;;;;;32.30;13.88;;;8.70;96.90;;;;;;5052044;28;20033;-68
2023/05/31 00:55:21;;;;;;;29.02;12.82;;;8.70;96.90;;;;;;5052883;28;20033;-69
2023/05/31 00:57:47;;;;;;;35.33;13.98;;;8.60;96.80;;;;;;5051317;28;20075;-68
2023/05/31 01:00:14;;;;;;;32.13;14.75;;;8.70;97.00;;;;;;5051226;28;20033;-68
2023/05/31 01:02:41;;;;;;;36.40;14.45;;;8.70;97.10;;;;;;5046378;28;20033;-68
2023/05/31 01:05:07;;;;;;;40.67;15.18;;;8.60;97.00;;;;;;5053131;28;20120;-69
2023/05/31 01:07:33;;;;;;;33.63;14.82;;;8.70;97.20;;;;;;5048438;28;20508;-68
2023/05/31 01:10:00;;;;;;;37.88;14.45;;;8.70;97.30;;;;;;5051126;28;20033;-68
2023/05/31 01:12:40;;;;;;;37.17;15.23;;;8.70;97.40;;;;;;5054697;28;20454;-68
2023/05/31 01:15:26;;;;;;;37.55;15.75;;;8.60;97.40;;;;;;5061862;28;20039;-68
2023/05/31 01:18:26;;;;;;;37.65;15.80;;;8.60;97.40;;;;;;5059437;28;20044;-68
2023/05/31 01:20:57;;;;;;;44.65;15.85;;;8.60;97.40;;;;;;5047712;28;20067;-68
2023/05/31 01:23:37;;;;;;;33.72;14.80;;;8.50;97.40;;;;;;5050814;28;20059;-68
2023/05/31 01:26:35;;;;;;;39.83;16.30;;;8.50;97.40;;;;;;5066998;28;20379;-68
2023/05/31 01:29:04;;;;;;;44.45;17.38;;;8.60;97.40;;;;;;5045851;28;20127;-68
2023/05/31 01:31:33;;;;;;;41.20;15.18;;;8.60;97.40;;;;;;5050547;28;20053;-68
2023/05/31 01:33:59;;;;;;;37.40;16.92;;;8.60;97.40;;;;;;5041360;28;20021;-68
2023/05/31 01:36:25;;;;;;;43.55;17.48;;;8.60;97.40;;;;;;5051589;28;20481;-68
2023/05/31 01:38:51;;;;;;;43.08;16.17;;;8.60;97.40;;;;;;5048495;28;20035;-68
2023/05/31 01:41:17;;;;;;;42.83;16.80;;;8.60;97.50;;;;;;5044746;28;20078;-69
2023/05/31 01:43:44;;;;;;;41.25;17.13;;;8.60;97.60;;;;;;5051871;28;20476;-68
2023/05/31 01:46:14;;;;;;;44.30;18.02;;;8.60;97.60;;;;;;5045107;28;20035;-68
2023/05/31 01:48:40;;;;;;;41.20;16.98;;;8.70;97.70;;;;;;5052693;28;20105;-68
2023/05/31 01:51:09;;;;;;;38.60;16.55;;;8.70;97.80;;;;;;5050191;28;20370;-69
2023/05/31 01:53:34;;;;;;;39.80;16.17;;;8.70;97.80;;;;;;5049920;28;20130;-68
2023/05/31 01:56:02;;;;;;;33.60;15.93;;;8.70;97.90;;;;;;5046764;28;20053;-68
2023/05/31 01:58:30;;;;;;;33.63;14.80;;;8.60;97.80;;;;;;5037583;28;20032;-68
2023/05/31 02:00:56;;;;;;;34.05;15.90;;;8.60;97.80;;;;;;5044314;28;20029;-68
2023/05/31 02:03:21;;;;;;;33.97;16.08;;;8.60;97.90;;;;;;5044541;28;20420;-68
2023/05/31 02:06:00;;;;;;;33.05;15.75;;;8.50;97.80;;;;;;5047758;28;20041;-68
2023/05/31 02:08:27;;;;;;;32.90;15.02;;;8.50;97.90;;;;;;5044527;28;20104;-69
2023/05/31 02:10:53;;;;;;;29.85;15.13;;;8.40;97.90;;;;;;5057973;28;20032;-68
2023/05/31 02:13:20;;;;;;;29.20;14.80;;;8.30;97.80;;;;;;5050633;28;20029;-68
2023/05/31 02:15:45;;;;;;;28.75;14.32;;;8.30;97.80;;;;;;5042876;28;20552;-69
2023/05/31 02:18:12;;;;;;;27.63;14.68;;;8.20;97.80;;;;;;5041978;28;20043;-68
2023/05/31 02:20:38;;;;;;;29.27;14.43;;;8.20;97.80;;;;;;5043648;28;20458;-68
2023/05/31 02:23:03;;;;;;;26.73;13.65;;;8.20;97.70;;;;;;5048853;28;20047;-68
2023/05/31 02:25:29;;;;;;;26.20;12.88;;;8.10;97.60;;;;;;5046640;28;20037;-68
2023/05/31 02:27:54;;;;;;;21.25;11.70;;;8.00;97.50;;;;;;5047049;28;20055;-68
2023/05/31 02:30:20;;;;;;;23.05;12.95;;;8.10;97.50;;;;;;5044492;28;20033;-68
2023/05/31 02:32:45;;;;;;;25.23;13.75;;;8.10;97.40;;;;;;5044250;28;20055;-69
2023/05/31 02:35:11;;;;;;;28.17;13.30;;;8.00;97.50;;;;;;5047866;28;20020;-68
2023/05/31 02:37:38;;;;;;;25.52;13.30;;;8.00;97.60;;;;;;5046488;28;20441;-69
2023/05/31 02:40:08;;;;;;;28.02;13.43;;;8.00;97.60;;;;;;5048918;28;20016;-68
2023/05/31 02:42:42;;;;;;;33.83;14.63;;;8.00;97.70;;;;;;5044364;28;20021;-68
2023/05/31 02:45:08;;;;;;;25.60;13.52;;;8.00;97.80;;;;;;5039820;28;20091;-69
2023/05/31 02:47:36;;;;;;;31.38;14.70;;;8.00;97.80;;;;;;5047347;28;20676;-68
2023/05/31 02:50:02;;;;;;;25.98;13.48;;;8.00;97.90;;;;;;5051272;28;20527;-68
2023/05/31 02:52:27;;;;;;;24.35;13.45;;;7.90;97.80;;;;;;5051253;28;20028;-68
2023/05/31 02:54:53;;;;;;;25.30;13.75;;;7.90;97.80;;;;;;5049989;28;20063;-68
2023/05/31 02:57:18;;;;;;;25.75;13.25;;;7.80;97.60;;;;;;5050862;28;20025;-68
2023/05/31 02:59:45;;;;;;;27.15;12.77;;;7.80;97.60;;;;;;5047574;28;20032;-68
2023/05/31 03:02:10;;;;;;;26.42;12.50;;;7.80;97.60;;;;;;5045466;28;20021;-68
2023/05/31 03:04:36;;;;;;;27.30;12.75;;;7.80;97.60;;;;;;5047788;28;20037;-68
2023/05/31 03:07:02;;;;;;;29.25;12.45;;;7.80;97.70;;;;;;5043685;28;20025;-68
2023/05/31 03:09:28;;;;;;;27.40;12.65;;;7.70;97.60;;;;;;5040322;28;20049;-68
2023/05/31 03:11:54;;;;;;;34.15;14.73;;;7.70;97.60;;;;;;5063868;28;20386;-68
2023/05/31 03:14:19;;;;;;;27.00;13.60;;;7.70;97.60;;;;;;5048117;28;20099;-68
2023/05/31 03:16:45;;;;;;;30.77;13.77;;;7.70;97.50;;;;;;5046430;28;20032;-68
2023/05/31 03:19:12;;;;;;;37.92;15.50;;;7.70;97.50;;;;;;5041502;28;20446;-68
2023/05/31 03:21:38;;;;;;;30.27;13.20;;;7.70;97.60;;;;;;5048037;28;20520;-68
2023/05/31 03:24:04;;;;;;;32.25;14.02;;;7.70;97.50;;;;;;5049027;28;20064;-68
2023/05/31 03:26:29;;;;;;;31.25;14.20;;;7.70;97.60;;;;;;5051688;28;20040;-68
2023/05/31 03:28:55;;;;;;;31.77;15.07;;;7.70;97.60;;;;;;5049076;28;20029;-68
2023/05/31 03:31:20;;;;;;;32.65;15.60;;;7.70;97.60;;;;;;5046934;28;20033;-68
2023/05/31 03:33:46;;;;;;;28.90;13.70;;;7.80;97.70;;;;;;5042591;28;20040;-69
2023/05/31 03:36:11;;;;;;;30.25;14.32;;;7.80;97.70;;;;;;5051079;28;20124;-68
2023/05/31 03:38:37;;;;;;;31.70;14.60;;;7.80;97.70;;;;;;5049989;28;20083;-68
2023/05/31 03:41:02;;;;;;;32.83;15.73;;;7.80;97.70;;;;;;5047952;28;20021;-68
2023/05/31 03:43:28;;;;;;;30.75;14.65;;;7.80;97.70;;;;;;5050250;28;20036;-68
2023/05/31 03:45:53;;;;;;;32.35;14.25;;;7.80;97.70;;;;;;5044039;28;20171;-68
2023/05/31 03:48:19;;;;;;;28.13;13.38;;;7.80;97.70;;;;;;5041131;28;20036;-68
2023/05/31 03:50:44;;;;;;;32.85;14.23;;;7.80;97.70;;;;;;5046188;28;20458;-68
2023/05/31 03:53:10;;;;;;;32.38;14.93;;;7.80;97.60;;;;;;5050351;28;20025;-68
2023/05/31 03:55:36;;;;;;;28.23;14.20;;;7.80;97.70;;;;;;5038945;28;20079;-68
2023/05/31 03:58:02;;;;;;;27.38;13.30;;;7.90;97.80;;;;;;5050620;28;20476;-68
2023/05/31 04:00:28;;;;;;;28.70;13.13;;;7.80;97.60;;;;;;5042015;28;20030;-68
2023/05/31 04:02:54;;;;;;;30.15;13.90;;;7.80;97.60;;;;;;5041631;28;20108;-68
2023/05/31 04:05:19;;;;;;;25.45;13.18;;;7.90;97.70;;;;;;5048773;28;20521;-69
2023/05/31 04:07:45;;;;;;;27.23;13.00;;;7.90;97.70;;;;;;5047371;28;20455;-68
2023/05/31 04:10:10;;;;;;;26.13;13.05;;;8.00;97.70;;;;;;5050567;28;20036;-67
2023/05/31 04:12:36;;;;;;;28.73;13.45;;;8.00;97.80;;;;;;5042779;28;20386;-68
2023/05/31 04:15:02;;;;;;;28.15;13.57;;;8.00;97.80;;;;;;5048245;28;20100;-69
2023/05/31 04:17:27;;;;;;;25.45;13.77;;;8.10;97.80;;;;;;5051092;28;20029;-68
2023/05/31 04:19:53;;;;;;;28.83;13.88;;;8.10;97.80;;;;;;5056171;28;20104;-68
2023/05/31 04:22:18;;;;;;;30.98;14.70;;;8.10;97.80;;;;;;5043745;28;20025;-68
2023/05/31 04:24:44;;;;;;;28.80;13.88;;;8.10;97.70;;;;;;5045286;28;20381;-68
2023/05/31 04:27:10;;;;;;;32.05;14.70;;;8.20;97.80;;;;;;5050913;28;20059;-68
2023/05/31 04:29:35;;;;;;;30.98;13.65;;;8.30;97.80;;;;;;5052440;28;20071;-68
2023/05/31 04:32:01;;;;;;;31.70;14.48;;;8.30;97.70;;;;;;5060414;28;20052;-68
2023/05/31 04:34:26;;;;;;;27.40;13.65;;;8.30;97.70;;;;;;5045107;28;20021;-69
2023/05/31 04:36:52;;;;;;;32.55;14.18;;;8.40;97.80;;;;;;5053862;28;20033;-69
2023/05/31 04:39:22;;;;;;;32.92;13.68;;;8.50;97.70;;;;;;5052078;28;20370;-69
2023/05/31 04:41:48;;;;;;;32.63;13.27;;;8.50;97.70;;;;;;5048491;28;20049;-69
2023/05/31 04:44:13;;;;;;;30.75;13.98;;;8.60;97.70;;;;;;5053037;28;20021;-69
2023/05/31 04:46:40;;;;;;;26.42;12.65;;;8.70;97.80;;;;;;5049257;28;20062;-69
2023/05/31 04:49:06;;;;;;;28.13;13.13;;;8.80;97.80;;;;;;5052161;28;20044;-70
2023/05/31 04:51:32;;;;;;;28.15;13.32;;;8.80;97.80;;;;;;5053096;28;20044;-69
2023/05/31 04:53:58;;;;;;;31.73;13.15;;;9.00;98.00;;;;;;5045359;28;20021;-69
2023/05/31 04:56:25;;;;;;;29.77;13.15;;;9.10;98.00;;;;;;5047968;28;20066;-69
2023/05/31 04:58:50;;;;;;;30.52;13.07;;;9.10;97.90;;;;;;5042004;28;20454;-68
2023/05/31 05:01:16;;;;;;;35.72;14.40;;;9.20;97.90;;;;;;5038046;28;20048;-69
2023/05/31 05:03:42;;;;;;;27.55;13.77;;;9.30;97.90;;;;;;5042015;28;20032;-69
2023/05/31 05:06:18;;;;;;;30.27;14.35;;;9.40;98.10;;;;;;5055670;28;20108;-68
2023/05/31 05:08:44;;;;;;;29.88;13.80;;;9.40;97.90;;;;;;5053458;28;20017;-69
2023/05/31 05:11:10;;;;;;;34.22;14.10;;;9.60;97.90;;;;;;5050179;28;20458;-69
2023/05/31 05:13:36;;;;;;;31.20;14.93;;;9.60;97.80;;;;;;5048817;28;20029;-69
2023/05/31 05:16:05;;;;;;;31.05;14.52;;;9.70;97.80;;;;;;5047576;28;20377;-70
2023/05/31 05:18:31;;;;;;;27.80;14.43;;;9.80;97.80;;;;;;5038922;28;20033;-70
2023/05/31 05:20:57;;;;;;;30.30;14.55;;;10.00;97.70;;;;;;5049739;28;20025;-70
2023/05/31 05:23:23;;;;;;;25.50;13.10;;;10.00;97.60;;;;;;5054065;28;20041;-69
2023/05/31 05:25:49;;;;;;;35.38;13.32;;;10.10;97.60;;;;;;5051516;28;20035;-69
2023/05/31 05:28:14;;;;;;;23.58;12.15;;;10.20;97.40;;;;;;5041766;28;20037;-69
2023/05/31 05:30:40;;;;;;;27.77;12.43;;;10.30;97.20;;;;;;5045648;28;20027;-71
2023/05/31 05:33:06;;;;;;;23.48;11.30;;;10.40;97.20;;;;;;5039465;28;20113;-71
2023/05/31 05:35:32;;;;;;;25.00;11.85;;;10.50;97.00;;;;;;5048786;28;20020;-70
2023/05/31 05:37:59;;;;;;;29.90;11.10;;;10.60;96.80;;;;;;5039913;28;20029;-70
2023/05/31 05:40:25;;;;;;;16.60;10.23;;;10.80;96.30;;;;;;5045464;28;20100;-70
2023/05/31 05:42:50;;;;;;;26.30;10.50;;;10.90;96.00;;;;;;5042580;28;20104;-71
2023/05/31 05:45:16;;;;;;;25.40;9.55;;;11.00;95.90;;;;;;5038217;28;20040;-71
2023/05/31 05:47:44;;;;;;;20.85;8.90;;;11.10;95.40;;;;;;5037555;28;20148;-70
2023/05/31 05:50:11;;;;;;;15.38;8.70;;;11.30;95.30;;;;;;5048273;28;20025;-70
2023/05/31 05:52:36;;;;;;;15.68;7.85;;;11.40;95.10;;;;;;5043221;28;20029;-70
2023/05/31 05:55:02;;;;;;;16.52;8.55;;;11.50;94.90;;;;;;5048722;28;20086;-69
2023/05/31 05:57:28;;;;;;;15.15;7.68;;;11.60;94.60;;;;;;5052165;28;20104;-70
2023/05/31 05:59:53;;;;;;;18.42;7.57;;;11.70;94.30;;;;;;5047505;28;20115;-70
2023/05/31 06:02:19;;;;;;;13.10;7.43;;;11.80;94.20;;;;;;5044407;28;20025;-69
2023/05/31 06:04:45;;;;;;;16.48;7.95;;;12.00;94.40;;;;;;5058545;28;20029;-69
2023/05/31 06:07:10;;;;;;;12.90;7.35;;;12.20;94.00;;;;;;5046242;28;20461;-69
2023/05/31 06:09:36;;;;;;;15.45;7.20;;;12.30;93.50;;;;;;5044135;28;20029;-69
2023/05/31 06:12:02;;;;;;;13.88;6.22;;;12.50;93.60;;;;;;5043733;28;20033;-69
2023/05/31 06:14:27;;;;;;;13.25;6.90;;;12.60;93.60;;;;;;5048525;28;20064;-69
2023/05/31 06:16:52;;;;;;;10.77;6.05;;;12.80;92.70;;;;;;5046699;28;20536;-69
2023/05/31 06:19:18;;;;;;;16.80;7.10;;;13.10;92.90;;;;;;5048476;28;20032;-69
2023/05/31 06:21:43;;;;;;;14.48;7.03;;;13.20;91.70;;;;;;5048484;28;20021;-70
2023/05/31 06:24:09;;;;;;;14.07;6.55;;;13.40;91.60;;;;;;5067941;28;20037;-70
2023/05/31 06:26:35;;;;;;;11.30;5.93;;;13.60;90.40;;;;;;5045797;28;20079;-70
2023/05/31 06:29:01;;;;;;;14.80;5.30;;;13.80;90.10;;;;;;5053620;28;20023;-69
2023/05/31 06:31:27;;;;;;;12.23;5.18;;;14.00;88.80;;;;;;5050419;28;20029;-70
2023/05/31 06:33:53;;;;;;;12.95;5.00;;;14.10;87.50;;;;;;5060505;28;20153;-70
2023/05/31 06:36:18;;;;;;;8.93;4.70;;;14.20;86.90;;;;;;5045477;28;20037;-70
2023/05/31 06:38:46;;;;;;;9.50;4.43;;;14.40;86.60;;;;;;5046302;28;20405;-70
2023/05/31 06:41:11;;;;;;;12.55;3.65;;;14.50;87.30;;;;;;5043304;28;20365;-70
2023/05/31 06:43:37;;;;;;;10.85;3.35;;;14.70;83.60;;;;;;5052839;28;20029;-69
2023/05/31 06:46:02;;;;;;;7.82;2.85;;;15.00;84.50;;;;;;5056364;28;20029;-72
2023/05/31 06:48:28;;;;;;;7.68;2.83;;;15.10;78.60;;;;;;5055098;28;20062;-71
2023/05/31 06:50:53;;;;;;;6.72;2.50;;;15.20;80.50;;;;;;5062790;28;20029;-70
2023/05/31 06:53:19;;;;;;;7.35;2.45;;;15.40;78.40;;;;;;5063976;28;20033;-71
2023/05/31 06:55:44;;;;;;;5.93;2.65;;;15.90;78.60;;;;;;5045373;28;20476;-71
2023/05/31 06:58:10;;;;;;;6.20;2.50;;;16.20;73.30;;;;;;5037524;28;20025;-71
2023/05/31 07:00:35;;;;;;;7.53;2.42;;;16.40;75.20;;;;;;5047425;28;20037;-72
2023/05/31 07:03:01;;;;;;;5.40;1.95;;;16.40;71.60;;;;;;5045366;28;20029;-71
2023/05/31 07:05:28;;;;;;;5.85;2.88;;;16.50;72.50;;;;;;5047468;28;20032;-71
2023/05/31 07:07:53;;;;;;;5.35;2.40;;;17.00;74.40;;;;;;5048450;28;20017;-71
2023/05/31 07:10:19;;;;;;;8.65;2.20;;;17.10;71.10;;;;;;5046093;28;20445;-71
2023/05/31 07:12:45;;;;;;;5.65;2.08;;;17.10;68.10;;;;;;5050287;28;20075;-71
2023/05/31 07:15:11;;;;;;;4.30;1.92;;;17.20;68.50;;;;;;5049042;28;20458;-71
2023/05/31 07:17:36;;;;;;;5.80;2.00;;;17.10;69.70;;;;;;5047526;28;20021;-71
2023/05/31 07:20:04;;;;;;;5.03;1.90;;;17.40;68.80;;;;;;5049680;28;20108;-71
2023/05/31 07:22:30;;;;;;;5.68;1.83;;;17.60;66.20;;;;;;5055325;28;20052;-71
2023/05/31 07:24:55;;;;;;;4.97;1.65;;;17.50;64.10;;;;;;5053571;28;20074;-71
2023/05/31 07:27:21;;;;;;;4.57;1.52;;;17.70;65.40;;;;;;5049658;28;20056;-71
2023/05/31 07:29:47;;;;;;;5.53;1.42;;;18.00;63.50;;;;;;5048130;28;20532;-71
2023/05/31 07:32:12;;;;;;;3.75;1.60;;;18.20;67.30;;;;;;5044543;28;20060;-71
2023/05/31 07:34:38;;;;;;;6.22;1.65;;;18.10;62.40;;;;;;5044862;28;20033;-71
2023/05/31 07:37:03;;;;;;;6.47;1.50;;;18.10;60.30;;;;;;5051119;28;20039;-71
2023/05/31 07:39:30;;;;;;;7.10;2.05;;;18.50;61.50;;;;;;5052758;28;20017;-71
2023/05/31 07:41:55;;;;;;;7.07;1.98;;;18.50;60.70;;;;;;5051648;28;20052;-71
2023/05/31 07:44:22;;;;;;;6.32;1.90;;;18.50;59.60;;;;;;5054311;28;20462;-71
2023/05/31 07:46:47;;;;;;;3.33;1.42;;;18.90;58.90;;;;;;5050138;28;20020;-72
2023/05/31 07:49:12;;;;;;;6.13;1.80;;;19.00;58.10;;;;;;5054249;28;20449;-71
2023/05/31 07:51:38;;;;;;;5.22;1.92;;;19.20;57.80;;;;;;5060412;28;20032;-71
2023/05/31 07:54:04;;;;;;;3.13;1.52;;;19.50;58.30;;;;;;5054416;28;20037;-71
2023/05/31 07:56:29;;;;;;;3.08;1.48;;;19.20;57.80;;;;;;5046994;28;20032;-71
2023/05/31 07:58:55;;;;;;;5.50;1.38;;;19.00;55.20;;;;;;5051986;28;20512;-72
2023/05/31 08:01:20;;;;;;;4.82;1.40;;;19.40;58.30;;;;;;5044275;28;20060;-71
2023/05/31 08:03:46;;;;;;;7.45;1.90;;;19.50;55.60;;;;;;5050607;28;20029;-71
2023/05/31 08:06:11;;;;;;;5.97;1.50;;;19.80;55.60;;;;;;5060031;28;20385;-71
2023/05/31 08:08:37;;;;;;;5.53;1.70;;;19.70;57.40;;;;;;5054746;28;20025;-71
2023/05/31 08:11:02;;;;;;;6.70;1.95;;;19.60;55.60;;;;;;5044314;28;20115;-71
2023/05/31 08:13:29;;;;;;;4.38;1.67;;;19.90;57.30;;;;;;5052410;28;20372;-72
2023/05/31 08:15:55;;;;;;;6.70;2.05;;;19.60;56.60;;;;;;5059342;28;20124;-72
2023/05/31 08:18:21;;;;;;;5.57;2.28;;;19.80;56.30;;;;;;5046796;28;20070;-72
2023/05/31 08:20:47;;;;;;;7.13;2.00;;;19.70;58.00;;;;;;5056800;28;20045;-71
2023/05/31 08:23:17;;;;;;;4.97;2.33;;;19.80;56.30;;;;;;5055122;28;20450;-71
2023/05/31 08:25:43;;;;;;;;;;;20.00;55.30;;;;;;5055083;28;20128;-72
2023/05/31 08:28:08;;;;;;;7.05;2.70;;;20.10;55.90;;;;;;5051296;28;20052;-71
2023/05/31 08:30:34;;;;;;;6.28;2.55;;;20.30;57.00;;;;;;5057359;28;20032;-72
2023/05/31 08:33:00;;;;;;;5.50;2.30;;;20.60;57.20;;;;;;5047536;28;20025;-72
2023/05/31 08:35:25;;;;;;;6.60;2.17;;;20.60;53.40;;;;;;5051511;28;20032;-71
2023/05/31 08:37:51;;;;;;;6.60;2.45;;;20.20;55.10;;;;;;5051067;28;20028;-71
2023/05/31 08:40:17;;;;;;;7.50;2.60;;;20.40;55.00;;;;;;5043580;28;20032;-72
2023/05/31 08:42:51;;;;;;;7.57;3.20;;;20.30;54.20;;;;;;5041456;28;20021;-75
2023/05/31 08:45:18;;;;;;;5.65;2.10;;;21.00;55.00;;;;;;5060273;28;20063;-71
2023/05/31 08:47:45;;;;;;;6.07;2.80;;;20.40;54.70;;;;;;5051269;28;20025;-71
2023/05/31 08:50:12;;;;;;;7.50;2.78;;;20.50;53.90;;;;;;5052931;28;20033;-71
2023/05/31 08:52:38;;;;;;;9.10;2.58;;;20.70;53.30;;;;;;5052310;28;20096;-72
2023/05/31 08:55:04;;;;;;;6.78;2.70;;;21.00;53.20;;;;;;5048814;28;20036;-72
2023/05/31 08:57:31;;;;;;;3.97;1.90;;;20.70;53.80;;;;;;5048226;28;20072;-72
2023/05/31 08:59:58;;;;;;;7.40;2.28;;;21.10;55.60;;;;;;5067757;28;20031;-72
2023/05/31 09:02:24;;;;;;;5.25;2.30;;;21.20;54.70;;;;;;5057463;28;20083;-72
2023/05/31 09:04:50;;;;;;;5.72;2.10;;;21.00;54.10;;;;;;5047297;28;20094;-72
2023/05/31 09:07:16;;;;;;;6.85;2.47;;;20.90;54.30;;;;;;5045362;28;20040;-72
2023/05/31 09:09:41;;;;;;;6.15;2.00;;;20.80;53.90;;;;;;5044711;28;20037;-72
2023/05/31 09:12:07;;;;;;;5.82;2.25;;;20.60;53.90;;;;;;5049397;28;20529;-72
2023/05/31 09:14:33;;;;;;;5.75;2.17;;;20.70;55.60;;;;;;5050123;28;20029;-72
2023/05/31 09:17:00;;;;;;;7.97;2.60;;;20.80;53.70;;;;;;5047867;28;20073;-72
2023/05/31 09:19:26;;;;;;;4.70;2.05;;;21.20;53.00;;;;;;5042386;28;20032;-72
2023/05/31 09:21:52;;;;;;;8.43;2.13;;;20.90;53.50;;;;;;5050563;28;20029;-72
2023/05/31 09:24:19;;;;;;;4.57;1.90;;;21.00;54.70;;;;;;5044112;28;20029;-74
2023/05/31 09:26:52;;;;;;;6.22;2.08;;;21.00;52.80;;;;;;5007167;28;1006517;-74
2023/05/31 09:29:19;;;;;;;6.40;1.70;;;21.20;52.40;;;;;;5038817;28;20374;-74
2023/05/31 09:31:45;;;;;;;4.70;1.83;;;21.60;52.40;;;;;;5043577;28;20029;-73
2023/05/31 09:34:29;;;;;;;5.43;1.95;;;21.50;51.80;;;;;;5043053;28;20078;-73
2023/05/31 09:37:03;;;;;;;5.40;1.63;;;21.60;50.70;;;;;;5054200;28;20087;-72
2023/05/31 09:39:30;;;;;;;5.28;1.80;;;21.70;51.50;;;;;;5036310;28;20025;-72
2023/05/31 09:41:57;;;;;;;3.80;1.63;;;21.70;48.80;;;;;;5047153;28;20100;-72
2023/05/31 09:44:30;;;;;;;5.35;1.80;;;21.70;48.50;;;;;;5058218;28;20128;-71
2023/05/31 09:46:56;;;;;;;6.93;2.00;;;22.00;48.30;;;;;;5048448;28;20064;-72
2023/05/31 09:49:22;;;;;;;6.63;2.13;;;22.00;48.00;;;;;;5043896;28;20016;-72
2023/05/31 09:51:51;;;;;;;5.43;1.48;;;22.10;49.20;;;;;;5042980;28;20020;-72
2023/05/31 09:54:17;;;;;;;7.72;1.73;;;22.60;48.60;;;;;;5054823;28;20029;-72
2023/05/31 09:56:43;;;;;;;7.28;1.95;;;22.50;46.40;;;;;;5048464;28;20025;-72
2023/05/31 09:59:10;;;;;;;7.35;1.52;;;22.80;46.10;;;;;;5052767;28;20057;-71
2023/05/31 10:01:36;;;;;;;6.30;1.70;;;23.00;45.90;;;;;;5046988;28;20050;-72
2023/05/31 10:04:03;;;;;;;5.95;1.80;;;22.90;45.20;;;;;;5046720;28;20029;-72
2023/05/31 10:06:34;;;;;;;4.07;1.38;;;22.70;47.10;;;;;;5044522;28;20017;-73
2023/05/31 10:09:04;;;;;;;4.50;1.92;;;22.80;45.80;;;;;;5044964;28;20055;-72
2023/05/31 10:11:34;;;;;;;4.93;1.92;;;22.80;46.50;;;;;;5051027;28;20337;-73
2023/05/31 10:14:03;;;;;;;7.28;1.98;;;22.80;45.50;;;;;;5051014;28;20025;-72
2023/05/31 10:16:35;;;;;;;6.82;2.13;;;22.60;45.40;;;;;;5048036;28;20029;-72
2023/05/31 10:19:04;;;;;;;5.13;1.63;;;22.70;46.70;;;;;;5051832;28;20021;-75
2023/05/31 10:21:30;;;;;;;6.10;1.52;;;22.70;46.00;;;;;;5042372;28;20013;-72
2023/05/31 10:24:06;;;;;;;5.22;2.00;;;23.00;45.60;;;;;;5051410;28;20108;-73
2023/05/31 10:26:44;;;;;;;7.50;2.10;;;23.30;46.60;;;;;;5049452;28;20044;-73
2023/05/31 10:29:26;;;;;;;6.00;1.70;;;23.60;44.90;;;;;;5059192;28;20027;-73
2023/05/31 10:31:54;;;;;;;5.63;1.45;;;23.40;46.40;;;;;;5038734;28;20114;-73
2023/05/31 10:34:23;;;;;;;4.97;1.65;;;23.20;44.40;;;;;;5047988;28;20491;-72
2023/05/31 10:36:55;;;;;;;4.70;1.50;;;23.00;44.80;;;;;;5048307;28;20525;-72
2023/05/31 10:39:40;;;;;;;7.38;2.08;;;23.50;44.90;;;;;;5042513;28;20263;-72
2023/05/31 10:42:08;;;;;;;5.50;1.60;;;23.40;44.40;;;;;;5055318;28;20036;-72
2023/05/31 10:44:45;;;;;;;5.78;1.90;;;23.30;43.10;;;;;;5047602;28;20296;-73
2023/05/31 10:47:13;;;;;;;9.88;2.15;;;23.80;44.30;;;;;;5044539;28;20045;-72
2023/05/31 10:49:41;;;;;;;6.00;2.08;;;23.80;44.70;;;;;;5049953;28;20029;-72
2023/05/31 10:52:09;;;;;;;10.18;2.40;;;23.90;45.40;;;;;;5047869;28;20033;-73
2023/05/31 10:54:34;;;;;;;6.47;2.10;;;24.00;46.30;;;;;;5046551;28;20029;-73
2023/05/31 10:57:03;;;;;;;6.80;2.50;;;24.00;45.50;;;;;;5045463;28;20036;-72
2023/05/31 10:59:38;;;;;;;7.45;2.40;;;23.80;44.60;;;;;;5044929;28;20032;-73
2023/05/31 11:02:06;;;;;;;4.90;1.85;;;24.30;44.50;;;;;;5041335;28;20041;-72
2023/05/31 11:04:32;;;;;;;7.82;2.20;;;24.30;45.30;;;;;;5045836;28;20044;-73
2023/05/31 11:07:19;;;;;;;6.22;1.88;;;24.90;44.10;;;;;;5050112;28;20251;-72
2023/05/31 11:10:03;;;;;;;5.05;1.70;;;24.50;42.20;;;;;;5048792;28;20087;-73
2023/05/31 11:12:36;;;;;;;8.98;2.03;;;24.60;43.00;;;;;;5045980;28;20104;-72
2023/05/31 11:15:11;;;;;;;7.60;1.83;;;24.50;45.20;;;;;;5046994;28;20029;-73
2023/05/31 11:17:55;;;;;;;4.82;1.73;;;25.00;44.30;;;;;;5038147;28;20024;-72
2023/05/31 11:20:22;;;;;;;8.57;1.88;;;24.70;42.60;;;;;;5043890;28;20104;-73
2023/05/31 11:22:47;;;;;;;7.32;1.75;;;24.50;45.00;;;;;;5050851;28;20021;-73
2023/05/31 11:25:20;;;;;;;3.55;1.58;;;24.50;42.70;;;;;;5048159;28;20033;-72
2023/05/31 11:27:48;;;;;;;5.38;1.20;;;24.80;42.60;;;;;;5046941;28;20052;-72
2023/05/31 11:30:17;;;;;;;8.35;1.77;;;24.90;42.60;;;;;;5045213;28;20623;-72
2023/05/31 11:32:43;;;;;;;5.50;1.65;;;25.20;42.20;;;;;;5047901;28;20066;-72
2023/05/31 11:35:15;;;;;;;7.22;1.45;;;24.90;41.20;;;;;;5048368;28;20416;-72
2023/05/31 11:37:43;;;;;;;3.80;1.42;;;25.40;42.30;;;;;;5049503;28;20112;-73
2023/05/31 11:40:13;;;;;;;6.20;1.65;;;25.30;39.30;;;;;;5048268;28;20021;-73
2023/05/31 11:42:43;;;;;;;5.65;1.42;;;25.00;40.50;;;;;;5056347;28;20021;-72
2023/05/31 11:45:10;;;;;;;3.35;1.30;;;25.00;40.20;;;;;;5048109;28;20148;-72
2023/05/31 11:47:52;;;;;;;5.13;1.58;;;25.10;39.70;;;;;;5045258;28;20472;-72
2023/05/31 11:50:18;;;;;;;4.63;1.30;;;26.10;38.10;;;;;;5050541;28;20021;-73
2023/05/31 11:52:45;;;;;;;3.83;1.40;;;26.10;40.20;;;;;;5048405;28;20031;-72
2023/05/31 11:55:11;;;;;;;3.83;1.30;;;26.80;37.40;;;;;;5048591;28;20051;-73
2023/05/31 11:57:44;;;;;;;6.32;1.40;;;26.90;36.80;;;;;;5047464;28;20074;-73
2023/05/31 12:00:11;;;;;;;3.50;1.10;;;26.70;36.70;;;;;;5049603;28;20075;-72
2023/05/31 12:02:40;;;;;;;4.18;1.48;;;27.10;37.50;;;;;;5045735;28;20055;-72
2023/05/31 12:05:06;;;;;;;5.70;1.48;;;26.60;36.80;;;;;;5041558;28;20034;-72
2023/05/31 12:07:32;;;;;;;5.75;1.52;;;26.40;38.80;;;;;;5041559;28;20559;-72
2023/05/31 12:09:59;;;;;;;3.38;1.17;;;26.80;37.50;;;;;;5046131;28;20089;-72
2023/05/31 12:12:25;;;;;;;3.20;1.42;;;26.50;35.50;;;;;;5044686;28;20021;-72
2023/05/31 12:14:52;;;;;;;5.68;1.30;;;26.50;36.40;;;;;;5046731;28;20397;-73
2023/05/31 12:17:17;;;;;;;3.22;1.40;;;27.20;37.80;;;;;;5040037;28;20469;-72
2023/05/31 12:19:46;;;;;;;3.20;1.20;;;27.30;36.30;;;;;;5048706;28;20033;-72
2023/05/31 12:22:12;;;;;;;6.35;1.88;;;27.10;36.60;;;;;;5052864;28;20047;-72
2023/05/31 12:24:51;;;;;;;4.20;1.27;;;27.40;36.10;;;;;;5049113;28;20453;-73
2023/05/31 12:27:19;;;;;;;5.72;1.48;;;27.60;36.70;;;;;;5049510;28;20408;-72
2023/05/31 12:29:44;;;;;;;3.63;1.40;;;28.10;36.20;;;;;;5046799;28;20378;-72
2023/05/31 12:32:10;;;;;;;7.07;1.55;;;28.50;38.30;;;;;;5047595;28;20036;-72
2023/05/31 12:34:37;;;;;;;5.60;2.10;;;27.80;35.90;;;;;;5054906;28;20041;-73
2023/05/31 12:37:07;;;;;;;4.32;1.67;;;27.20;38.80;;;;;;5044511;28;20074;-72
2023/05/31 12:39:33;;;;;;;8.10;1.90;;;27.10;38.70;;;;;;5045127;28;20020;-72
2023/05/31 12:42:00;;;;;;;5.68;1.70;;;27.10;39.40;;;;;;5054146;28;20017;-72